createdAt,value
2018-04-25T00:01:03.338Z,12.90
2018-04-25T00:03:30.802Z,12.80
2018-04-25T00:05:58.252Z,12.90
2018-04-25T00:08:25.788Z,12.80
2018-04-25T00:10:53.207Z,12.90
2018-04-25T00:13:20.660Z,12.90
2018-04-25T00:15:48.112Z,12.90
2018-04-25T00:18:15.603Z,12.80
2018-04-25T00:20:43.134Z,12.70
2018-04-25T00:23:10.606Z,12.80
2018-04-25T00:25:38.074Z,12.80
2018-04-25T00:28:05.522Z,12.70
2018-04-25T00:30:32.994Z,12.70
2018-04-25T00:33:00.439Z,12.70
2018-04-25T00:35:27.907Z,12.70
2018-04-25T00:37:55.365Z,12.70
2018-04-25T00:40:22.827Z,12.60
2018-04-25T00:42:50.328Z,12.60
2018-04-25T00:45:17.790Z,12.60
2018-04-25T00:47:45.261Z,12.60
2018-04-25T00:50:12.720Z,12.50
2018-04-25T00:52:40.188Z,12.50
2018-04-25T00:55:07.631Z,12.50
2018-04-25T00:57:35.104Z,12.40
2018-04-25T01:00:02.545Z,12.40
2018-04-25T01:02:30.017Z,12.40
2018-04-25T01:04:57.975Z,12.40
2018-04-25T01:07:25.410Z,12.40
2018-04-25T01:09:53.645Z,12.30
2018-04-25T01:12:21.193Z,12.20
2018-04-25T01:14:48.662Z,12.30
2018-04-25T01:17:16.107Z,12.30
2018-04-25T01:19:45.194Z,12.20
2018-04-25T01:22:12.631Z,12.20
2018-04-25T01:24:40.866Z,12.20
2018-04-25T01:27:08.311Z,12.20
2018-04-25T01:29:37.602Z,12.30
2018-04-25T01:32:05.096Z,12.30
2018-04-25T01:34:35.514Z,12.30
2018-04-25T01:37:03.086Z,12.40
2018-04-25T01:39:40.989Z,12.30
2018-04-25T01:42:17.481Z,12.30
2018-04-25T01:44:55.777Z,12.40
2018-04-25T01:47:27.217Z,12.40
2018-04-25T01:53:02.154Z,12.30
2018-04-25T01:55:41.579Z,12.40
2018-04-25T01:58:21.134Z,12.40
2018-04-25T02:01:00.577Z,12.30
2018-04-25T02:03:40.102Z,12.30
2018-04-25T02:06:07.543Z,12.30
2018-04-25T02:08:35.001Z,12.30
2018-04-25T02:11:02.742Z,12.30
2018-04-25T02:13:30.966Z,12.30
2018-04-25T02:15:58.434Z,12.30
2018-04-25T02:18:25.887Z,12.30
2018-04-25T02:20:53.361Z,12.30
2018-04-25T02:23:20.826Z,12.30
2018-04-25T02:25:48.282Z,12.20
2018-04-25T02:28:15.750Z,12.30
2018-04-25T02:30:43.215Z,12.30
2018-04-25T02:33:10.667Z,12.30
2018-04-25T02:35:38.111Z,12.20
2018-04-25T02:38:05.563Z,12.20
2018-04-25T02:40:33.059Z,12.10
2018-04-25T02:43:00.533Z,12.10
2018-04-25T02:45:28.006Z,12.20
2018-04-25T02:47:55.475Z,12.20
2018-04-25T02:50:22.928Z,12.10
2018-04-25T02:52:50.381Z,12.10
2018-04-25T02:55:17.861Z,12.10
2018-04-25T02:57:45.326Z,12.10
2018-04-25T03:00:12.774Z,12.10
2018-04-25T03:02:40.243Z,12.10
2018-04-25T03:05:07.698Z,12.00
2018-04-25T03:07:35.159Z,12.00
2018-04-25T03:10:02.602Z,12.10
2018-04-25T03:12:30.096Z,12.20
2018-04-25T03:14:57.640Z,12.20
2018-04-25T03:17:25.133Z,12.20
2018-04-25T03:19:52.562Z,12.30
2018-04-25T03:22:20.126Z,12.20
2018-04-25T03:24:47.578Z,12.20
2018-04-25T03:27:15.039Z,12.30
2018-04-25T03:29:42.526Z,12.30
2018-04-25T03:32:10.002Z,12.30
2018-04-25T03:34:37.454Z,12.30
2018-04-25T03:37:04.925Z,12.30
2018-04-25T03:39:32.394Z,12.30
2018-04-25T03:41:59.853Z,12.20
2018-04-25T03:44:27.329Z,12.20
2018-04-25T03:46:54.803Z,12.20
2018-04-25T03:49:23.022Z,12.20
2018-04-25T03:51:50.497Z,12.20
2018-04-25T03:54:17.971Z,12.20
2018-04-25T03:56:45.451Z,12.20
2018-04-25T03:59:12.998Z,12.20
2018-04-25T04:01:41.266Z,12.20
2018-04-25T04:04:08.738Z,12.10
2018-04-25T04:06:36.197Z,12.20
2018-04-25T04:09:03.649Z,12.10
2018-04-25T04:11:31.104Z,12.10
2018-04-25T04:13:58.559Z,12.10
2018-04-25T04:16:26.007Z,12.10
2018-04-25T04:18:53.494Z,12.00
2018-04-25T04:21:20.976Z,12.00
2018-04-25T04:23:48.436Z,12.10
2018-04-25T04:26:15.898Z,12.00
2018-04-25T04:28:43.369Z,12.00
2018-04-25T04:31:10.900Z,12.00
2018-04-25T04:33:38.339Z,11.90
2018-04-25T04:36:06.591Z,12.00
2018-04-25T04:38:34.058Z,11.90
2018-04-25T04:41:01.496Z,12.00
2018-04-25T04:43:28.957Z,12.00
2018-04-25T04:45:56.434Z,12.00
2018-04-25T04:48:24.654Z,12.00
2018-04-25T04:50:52.122Z,12.00
2018-04-25T04:53:19.585Z,12.00
2018-04-25T04:55:47.046Z,12.10
2018-04-25T04:58:14.538Z,12.10
2018-04-25T05:00:42.008Z,12.20
2018-04-25T05:03:09.458Z,12.20
2018-04-25T05:05:36.954Z,12.20
2018-04-25T05:08:04.438Z,12.30
2018-04-25T05:10:32.722Z,12.40
2018-04-25T05:13:01.027Z,12.50
2018-04-25T05:15:28.418Z,12.40
2018-04-25T05:17:55.878Z,12.60
2018-04-25T05:20:23.346Z,12.70
2018-04-25T05:22:50.914Z,12.80
2018-04-25T05:25:18.382Z,12.90
2018-04-25T05:27:45.862Z,12.90
2018-04-25T05:30:13.318Z,13.00
2018-04-25T05:32:40.758Z,13.20
2018-04-25T05:35:08.230Z,13.20
2018-04-25T05:37:35.689Z,13.30
2018-04-25T05:40:03.173Z,13.40
2018-04-25T05:42:30.615Z,13.40
2018-04-25T05:44:58.074Z,13.50
2018-04-25T05:47:25.545Z,13.50
2018-04-25T05:49:53.027Z,13.60
2018-04-25T05:52:20.564Z,13.60
2018-04-25T05:54:48.005Z,13.70
2018-04-25T05:57:15.483Z,13.80
2018-04-25T05:59:42.939Z,14.00
2018-04-25T06:02:10.528Z,14.10
2018-04-25T06:04:38.039Z,14.10
2018-04-25T06:07:05.498Z,14.20
2018-04-25T06:09:32.971Z,14.30
2018-04-25T06:12:00.430Z,14.40
2018-04-25T06:14:27.917Z,14.50
2018-04-25T06:16:55.380Z,14.60
2018-04-25T06:19:22.871Z,14.70
2018-04-25T06:21:50.318Z,14.80
2018-04-25T06:24:17.786Z,14.80
2018-04-25T06:26:45.502Z,14.90
2018-04-25T06:29:13.797Z,15.10
2018-04-25T06:31:41.234Z,15.00
2018-04-25T06:34:09.478Z,15.20
2018-04-25T06:36:36.971Z,15.20
2018-04-25T06:39:05.193Z,15.40
2018-04-25T06:41:32.681Z,15.40
2018-04-25T06:44:00.157Z,15.50
2018-04-25T06:46:27.669Z,15.60
2018-04-25T06:48:55.154Z,15.80
2018-04-25T06:51:22.735Z,15.90
2018-04-25T06:53:50.187Z,15.90
2018-04-25T06:56:17.679Z,16.00
2018-04-25T06:58:45.803Z,16.10
2018-04-25T07:01:13.460Z,16.20
2018-04-25T07:03:40.962Z,16.30
2018-04-25T07:06:08.426Z,16.40
2018-04-25T07:08:35.988Z,16.50
2018-04-25T07:11:03.438Z,16.50
2018-04-25T07:13:30.919Z,16.70
2018-04-25T07:15:58.366Z,16.70
2018-04-25T07:18:25.911Z,16.90
2018-04-25T07:20:53.394Z,17.00
2018-04-25T07:23:20.857Z,17.10
2018-04-25T07:25:48.302Z,17.20
2018-04-25T07:28:15.772Z,17.30
2018-04-25T07:30:43.204Z,17.40
2018-04-25T07:33:11.434Z,17.90
2018-04-25T07:35:39.418Z,17.80
2018-04-25T07:38:06.880Z,17.90
2018-04-25T07:40:34.322Z,18.10
2018-04-25T07:43:01.902Z,18.10
2018-04-25T07:45:29.344Z,18.30
2018-04-25T07:47:56.801Z,18.40
2018-04-25T07:50:24.271Z,18.50
2018-04-25T07:52:51.722Z,18.60
2018-04-25T07:55:19.207Z,18.70
2018-04-25T07:57:46.776Z,18.80
2018-04-25T08:00:14.208Z,18.90
2018-04-25T08:02:41.693Z,19.00
2018-04-25T08:05:09.158Z,19.20
2018-04-25T08:07:36.610Z,19.20
2018-04-25T08:10:04.060Z,19.10
2018-04-25T08:12:43.489Z,19.10
2018-04-25T08:15:22.937Z,19.10
2018-04-25T08:18:02.396Z,19.20
2018-04-25T08:20:53.705Z,19.20
2018-04-25T08:23:21.262Z,19.10
2018-04-25T08:25:48.724Z,19.10
2018-04-25T08:28:16.186Z,19.20
2018-04-25T08:30:43.625Z,19.30
2018-04-25T08:33:11.088Z,19.40
2018-04-25T08:35:38.574Z,19.50
2018-04-25T08:38:06.129Z,19.50
2018-04-25T08:40:33.575Z,19.60
2018-04-25T08:43:01.039Z,19.70
2018-04-25T08:45:28.486Z,19.90
2018-04-25T08:47:56.813Z,20.10
2018-04-25T08:50:24.272Z,20.00
2018-04-25T08:52:51.741Z,20.10
2018-04-25T08:55:19.218Z,20.20
2018-04-25T08:57:46.665Z,20.10
2018-04-25T09:00:14.130Z,20.10
2018-04-25T09:02:41.802Z,20.10
2018-04-25T09:05:09.254Z,20.00
2018-04-25T09:07:36.805Z,20.00
2018-04-25T09:10:04.262Z,19.90
2018-04-25T09:12:31.711Z,19.90
2018-04-25T09:14:59.178Z,20.00
2018-04-25T09:17:26.663Z,20.10
2018-04-25T09:19:54.136Z,20.20
2018-04-25T09:22:21.582Z,20.20
2018-04-25T09:24:49.025Z,20.40
2018-04-25T09:27:16.495Z,20.40
2018-04-25T09:29:43.943Z,20.50
2018-04-25T09:32:12.198Z,20.80
2018-04-25T09:34:40.431Z,20.80
2018-04-25T09:37:07.902Z,20.80
2018-04-25T09:39:35.372Z,20.90
2018-04-25T09:42:02.931Z,21.10
2018-04-25T09:44:30.389Z,21.10
2018-04-25T09:46:57.952Z,21.30
2018-04-25T09:49:25.401Z,21.40
2018-04-25T09:51:53.020Z,21.50
2018-04-25T09:54:20.430Z,21.50
2018-04-25T09:56:47.911Z,21.60
2018-04-25T09:59:15.361Z,21.60
2018-04-25T10:01:42.801Z,21.80
2018-04-25T10:04:10.258Z,22.00
2018-04-25T10:06:37.767Z,22.10
2018-04-25T10:09:05.222Z,22.30
2018-04-25T10:11:32.677Z,22.10
2018-04-25T10:14:00.241Z,21.90
2018-04-25T10:16:28.630Z,21.80
2018-04-25T10:18:56.075Z,21.80
2018-04-25T10:21:23.541Z,21.90
2018-04-25T10:23:50.982Z,22.00
2018-04-25T10:26:18.427Z,22.10
2018-04-25T10:28:46.653Z,22.30
2018-04-25T10:31:14.121Z,22.30
2018-04-25T10:33:41.581Z,22.50
2018-04-25T10:36:09.120Z,22.50
2018-04-25T10:38:36.569Z,22.50
2018-04-25T10:41:04.068Z,22.60
2018-04-25T10:43:31.513Z,22.50
2018-04-25T10:45:58.977Z,22.50
2018-04-25T10:48:26.431Z,22.40
2018-04-25T10:50:53.897Z,22.60
2018-04-25T10:53:21.380Z,22.70
2018-04-25T10:55:48.824Z,22.70
2018-04-25T10:58:16.357Z,22.80
2018-04-25T11:00:44.584Z,22.90
2018-04-25T11:03:12.052Z,22.90
2018-04-25T11:05:39.521Z,23.10
2018-04-25T11:08:07.078Z,23.10
2018-04-25T11:10:34.543Z,23.20
2018-04-25T11:13:02.043Z,23.20
2018-04-25T11:15:29.458Z,23.20
2018-04-25T11:17:56.927Z,23.20
2018-04-25T11:20:24.386Z,23.40
2018-04-25T11:22:51.843Z,23.50
2018-04-25T11:25:19.293Z,23.70
2018-04-25T11:27:46.758Z,23.70
2018-04-25T11:30:14.223Z,23.70
2018-04-25T11:32:41.884Z,23.80
2018-04-25T11:35:10.018Z,23.80
2018-04-25T11:37:37.483Z,23.60
2018-04-25T11:40:05.087Z,23.50
2018-04-25T11:42:32.575Z,23.50
2018-04-25T11:45:00.043Z,23.60
2018-04-25T11:47:27.509Z,23.60
2018-04-25T11:49:54.957Z,23.60
2018-04-25T11:52:22.401Z,23.60
2018-04-25T11:54:49.873Z,23.60
2018-04-25T11:57:17.381Z,23.60
2018-04-25T11:59:46.397Z,23.80
2018-04-25T12:02:13.834Z,23.80
2018-04-25T12:04:41.322Z,24.00
2018-04-25T12:07:09.577Z,23.30
2018-04-25T12:09:37.093Z,23.30
2018-04-25T12:12:04.531Z,23.10
2018-04-25T12:14:32.763Z,22.80
2018-04-25T12:17:00.342Z,22.70
2018-04-25T12:19:27.809Z,22.60
2018-04-25T12:21:55.349Z,22.40
2018-04-25T12:24:22.866Z,22.40
2018-04-25T12:26:50.282Z,22.40
2018-04-25T12:29:17.839Z,22.40
2018-04-25T12:31:45.318Z,22.60
2018-04-25T12:34:13.132Z,22.80
2018-04-25T12:36:41.357Z,23.10
2018-04-25T12:39:08.830Z,23.10
2018-04-25T12:41:36.358Z,23.20
2018-04-25T12:44:03.844Z,23.10
2018-04-25T12:46:31.334Z,23.20
2018-04-25T12:48:58.845Z,23.20
2018-04-25T12:51:26.336Z,23.10
2018-04-25T12:53:53.865Z,22.90
2018-04-25T12:56:21.277Z,22.90
2018-04-25T12:58:48.743Z,22.90
2018-04-25T13:01:16.216Z,23.10
2018-04-25T13:03:43.756Z,23.10
2018-04-25T13:06:11.219Z,23.00
2018-04-25T13:08:38.682Z,23.00
2018-04-25T13:11:06.155Z,23.00
2018-04-25T13:13:33.614Z,23.00
2018-04-25T13:16:01.073Z,22.90
2018-04-25T13:18:28.530Z,22.90
2018-04-25T13:20:55.985Z,22.90
2018-04-25T13:23:23.442Z,22.80
2018-04-25T13:25:50.917Z,22.80
2018-04-25T13:28:18.378Z,22.80
2018-04-25T13:30:45.858Z,22.60
2018-04-25T13:33:13.404Z,22.50
2018-04-25T13:35:40.874Z,22.50
2018-04-25T13:38:08.345Z,22.40
2018-04-25T13:40:35.822Z,22.20
2018-04-25T13:43:04.144Z,22.10
2018-04-25T13:45:31.570Z,22.00
2018-04-25T13:47:59.816Z,22.00
2018-04-25T13:50:27.303Z,22.00
2018-04-25T13:52:54.743Z,21.90
2018-04-25T13:55:22.202Z,21.80
2018-04-25T13:57:49.666Z,21.70
2018-04-25T14:00:17.113Z,21.60
2018-04-25T14:02:44.584Z,21.60
2018-04-25T14:05:12.024Z,21.60
2018-04-25T14:07:39.490Z,21.70
2018-04-25T14:10:06.969Z,21.40
2018-04-25T14:12:34.434Z,21.30
2018-04-25T14:15:01.879Z,21.40
2018-04-25T14:17:29.343Z,21.20
2018-04-25T14:19:56.823Z,21.10
2018-04-25T14:22:24.301Z,21.20
2018-04-25T14:24:51.758Z,21.10
2018-04-25T14:27:19.217Z,21.00
2018-04-25T14:29:46.667Z,20.90
2018-04-25T14:32:14.214Z,20.80
2018-04-25T14:34:41.638Z,20.70
2018-04-25T14:37:09.862Z,20.60
2018-04-25T14:39:37.317Z,20.60
2018-04-25T14:42:04.779Z,20.60
2018-04-25T14:44:34.087Z,20.50
2018-04-25T14:47:01.617Z,20.50
2018-04-25T14:49:29.846Z,20.50
2018-04-25T14:51:57.323Z,20.40
2018-04-25T14:54:24.773Z,20.50
2018-04-25T14:56:52.241Z,20.40
2018-04-25T14:59:19.693Z,20.30
2018-04-25T15:01:47.167Z,20.30
2018-04-25T15:04:14.605Z,20.30
2018-04-25T15:06:42.062Z,20.20
2018-04-25T15:09:09.510Z,20.10
2018-04-25T15:11:37.486Z,20.10
2018-04-25T15:14:05.003Z,20.10
2018-04-25T15:16:32.883Z,20.10
2018-04-25T15:19:00.448Z,20.10
2018-04-25T15:21:27.915Z,20.10
2018-04-25T15:23:56.143Z,20.10
2018-04-25T15:26:23.639Z,20.10
2018-04-25T15:28:51.091Z,20.10
2018-04-25T15:31:18.549Z,20.10
2018-04-25T15:33:46.030Z,20.10
2018-04-25T15:36:13.562Z,20.00
2018-04-25T15:38:40.942Z,20.00
2018-04-25T15:41:09.812Z,19.90
2018-04-25T15:43:37.365Z,19.90
2018-04-25T15:46:04.832Z,19.90
2018-04-25T15:48:32.739Z,19.90
2018-04-25T15:51:00.297Z,19.90
2018-04-25T15:53:27.786Z,19.80
2018-04-25T15:55:55.201Z,19.80
2018-04-25T15:58:23.421Z,19.80
2018-04-25T16:00:50.889Z,19.80
2018-04-25T16:03:18.374Z,19.70
2018-04-25T16:05:45.910Z,19.70
2018-04-25T16:08:13.397Z,19.70
2018-04-25T16:10:41.773Z,19.70
2018-04-25T16:13:09.754Z,19.70
2018-04-25T16:15:38.004Z,19.70
2018-04-25T16:18:05.464Z,19.60
2018-04-25T16:20:32.928Z,19.60
2018-04-25T16:23:00.369Z,19.60
2018-04-25T16:25:27.842Z,19.60
2018-04-25T16:27:55.516Z,19.60
2018-04-25T16:30:22.960Z,19.50
2018-04-25T16:32:50.517Z,19.50
2018-04-25T16:35:17.979Z,19.50
2018-04-25T16:37:45.453Z,19.50
2018-04-25T16:40:12.912Z,19.50
2018-04-25T16:42:40.362Z,19.40
2018-04-25T16:45:09.805Z,19.40
2018-04-25T16:47:37.366Z,19.30
2018-04-25T16:50:04.836Z,19.30
2018-04-25T16:52:32.394Z,19.30
2018-04-25T16:54:59.865Z,19.30
2018-04-25T16:57:27.317Z,19.20
2018-04-25T16:59:54.803Z,19.20
2018-04-25T17:02:22.293Z,19.20
2018-04-25T17:04:50.522Z,19.10
2018-04-25T17:07:17.997Z,19.10
2018-04-25T17:09:45.659Z,19.10
2018-04-25T17:12:13.112Z,19.00
2018-04-25T17:14:40.577Z,19.00
2018-04-25T17:17:09.366Z,18.90
2018-04-25T17:19:36.860Z,18.90
2018-04-25T17:22:05.822Z,18.70
2018-04-25T17:24:33.285Z,18.70
2018-04-25T17:27:00.749Z,18.70
2018-04-25T17:32:02.132Z,18.70
2018-04-25T17:34:29.573Z,18.70
2018-04-25T17:36:57.045Z,18.60
2018-04-25T17:39:24.518Z,18.60
2018-04-25T17:41:51.975Z,18.50
2018-04-25T17:44:19.416Z,18.50
2018-04-25T17:46:46.881Z,18.40
2018-04-25T17:49:14.334Z,18.40
2018-04-25T17:51:41.821Z,18.40
2018-04-25T17:54:09.258Z,18.40
2018-04-25T17:56:36.708Z,18.40
2018-04-25T17:59:04.940Z,18.30
2018-04-25T18:01:32.398Z,18.20
2018-04-25T18:03:59.875Z,18.30
2018-04-25T18:06:27.416Z,18.30
2018-04-25T18:08:54.886Z,18.20
2018-04-25T18:11:22.424Z,18.20
2018-04-25T18:13:49.916Z,18.20
2018-04-25T18:16:17.382Z,18.10
2018-04-25T18:18:44.934Z,18.10
2018-04-25T18:21:12.495Z,18.00
2018-04-25T18:23:39.966Z,18.00
2018-04-25T18:26:07.423Z,18.00
2018-04-25T18:28:34.902Z,18.00
2018-04-25T18:31:02.361Z,17.90
2018-04-25T18:33:29.815Z,17.90
2018-04-25T18:35:57.301Z,17.90
2018-04-25T18:38:25.120Z,17.80
2018-04-25T18:40:52.667Z,17.70
2018-04-25T18:43:20.128Z,17.70
2018-04-25T18:45:48.341Z,17.60
2018-04-25T18:48:15.794Z,17.50
2018-04-25T18:50:43.338Z,17.60
2018-04-25T18:53:11.687Z,17.50
2018-04-25T18:55:39.131Z,17.40
2018-04-25T18:58:06.590Z,17.40
2018-04-25T19:00:34.055Z,17.40
2018-04-25T19:03:01.620Z,17.40
2018-04-25T19:05:29.806Z,17.30
2018-04-25T19:07:57.266Z,17.30
2018-04-25T19:10:24.710Z,17.20
2018-04-25T19:12:52.272Z,17.20
2018-04-25T19:15:20.092Z,17.10
2018-04-25T19:17:47.511Z,17.10
2018-04-25T19:20:15.020Z,17.10
2018-04-25T19:22:43.234Z,17.00
2018-04-25T19:25:10.720Z,17.00
2018-04-25T19:27:38.174Z,17.00
2018-04-25T19:30:05.618Z,17.00
2018-04-25T19:32:33.090Z,16.90
2018-04-25T19:35:00.556Z,17.00
2018-04-25T19:37:28.071Z,17.00
2018-04-25T19:39:56.325Z,16.90
2018-04-25T19:42:23.786Z,16.90
2018-04-25T19:44:51.876Z,16.90
2018-04-25T19:47:20.039Z,16.80
2018-04-25T19:49:47.507Z,16.80
2018-04-25T19:52:15.005Z,16.80
2018-04-25T19:54:42.498Z,16.80
2018-04-25T19:57:09.986Z,16.80
2018-04-25T19:59:38.400Z,16.70
2018-04-25T20:02:06.006Z,16.70
2018-04-25T20:04:33.598Z,16.70
2018-04-25T20:07:01.046Z,16.70
2018-04-25T20:09:28.777Z,16.70
2018-04-25T20:11:57.387Z,16.70
2018-04-25T20:14:24.841Z,16.70
2018-04-25T20:16:53.603Z,16.70
2018-04-25T20:19:21.823Z,16.70
2018-04-25T20:21:49.803Z,16.70
2018-04-25T20:24:17.397Z,16.70
2018-04-25T20:26:44.841Z,16.70
2018-04-25T20:29:12.392Z,16.60
2018-04-25T20:31:39.891Z,16.60
2018-04-25T20:34:07.381Z,16.60
2018-04-25T20:36:35.068Z,16.50
2018-04-25T20:39:03.297Z,16.50
2018-04-25T20:41:30.725Z,16.50
2018-04-25T20:43:58.207Z,16.50
2018-04-25T20:46:25.688Z,16.50
2018-04-25T20:48:53.171Z,16.50
2018-04-25T20:51:20.724Z,16.50
2018-04-25T20:53:48.297Z,16.40
2018-04-25T20:56:15.911Z,16.40
2018-04-25T20:58:43.414Z,16.40
2018-04-25T21:01:10.894Z,16.40
2018-04-25T21:03:39.897Z,16.20
2018-04-25T21:06:07.351Z,16.20
2018-04-25T21:08:34.916Z,16.20
2018-04-25T21:11:02.471Z,16.20
2018-04-25T21:13:29.926Z,16.20
2018-04-25T21:15:57.436Z,16.10
2018-04-25T21:18:25.853Z,16.20
2018-04-25T21:20:53.631Z,16.10
2018-04-25T21:23:21.118Z,16.20
2018-04-25T21:25:48.660Z,16.10
2018-04-25T21:28:16.498Z,16.10
2018-04-25T21:30:43.942Z,16.10
2018-04-25T21:33:12.200Z,16.10
2018-04-25T21:35:39.638Z,16.10
2018-04-25T21:38:07.090Z,16.10
2018-04-25T21:40:34.663Z,16.10
2018-04-25T21:43:02.120Z,16.00
2018-04-25T21:45:29.597Z,16.00
2018-04-25T21:47:57.061Z,16.00
2018-04-25T21:50:24.610Z,15.90
2018-04-25T21:52:52.078Z,15.90
2018-04-25T21:55:19.542Z,15.90
2018-04-25T21:57:47.009Z,15.90
2018-04-25T22:00:14.454Z,15.80
2018-04-25T22:02:41.942Z,15.80
2018-04-25T22:05:09.369Z,15.80
2018-04-25T22:07:36.824Z,15.70
2018-04-25T22:10:05.311Z,15.70
2018-04-25T22:12:32.742Z,15.50
2018-04-25T22:15:00.987Z,15.50
2018-04-25T22:17:29.403Z,15.50
2018-04-25T22:19:57.745Z,15.40
2018-04-25T22:22:25.311Z,15.40
2018-04-25T22:24:52.769Z,15.40
2018-04-25T22:27:20.226Z,15.40
2018-04-25T22:29:47.686Z,15.40
2018-04-25T22:32:15.159Z,15.40
2018-04-25T22:34:42.634Z,15.30
2018-04-25T22:37:10.111Z,15.10
2018-04-25T22:39:37.651Z,15.00
2018-04-25T22:42:05.120Z,15.00
2018-04-25T22:44:32.560Z,14.90
2018-04-25T22:47:00.041Z,14.90
2018-04-25T22:49:28.830Z,14.80
2018-04-25T22:51:56.421Z,14.80
2018-04-25T22:54:23.888Z,14.80
2018-04-25T22:56:52.864Z,14.60
2018-04-25T22:59:21.581Z,14.60
2018-04-25T23:01:49.056Z,14.60
2018-04-25T23:04:17.045Z,14.50
2018-04-25T23:06:44.504Z,14.50
2018-04-25T23:09:12.718Z,14.40
2018-04-25T23:11:40.181Z,14.30
2018-04-25T23:14:07.629Z,14.40
2018-04-25T23:16:35.253Z,14.40
2018-04-25T23:19:02.805Z,14.30
2018-04-25T23:21:30.242Z,14.20
2018-04-25T23:23:57.699Z,14.20
2018-04-25T23:26:25.174Z,14.20
2018-04-25T23:28:52.952Z,14.20
2018-04-25T23:31:20.407Z,14.20
2018-04-25T23:33:47.846Z,14.20
2018-04-25T23:36:15.322Z,14.20
2018-04-25T23:38:42.762Z,14.10
2018-04-25T23:41:10.254Z,14.10
2018-04-25T23:43:37.735Z,14.10
2018-04-25T23:46:05.187Z,14.00
2018-04-25T23:48:32.660Z,14.00
2018-04-25T23:51:00.205Z,14.00
2018-04-25T23:53:28.221Z,14.00
2018-04-25T23:55:56.567Z,14.00
2018-04-25T23:58:24.023Z,13.90
